createdAt,value
2019-06-01T18:35:59.735Z,331.88
2019-06-01T18:36:59.543Z,331.88
2019-06-01T18:37:59.524Z,331.88
2019-06-01T18:38:59.478Z,331.88
2019-06-01T18:39:59.426Z,326.25
2019-06-01T18:41:09.269Z,309.38
2019-06-01T18:41:59.627Z,303.75
2019-06-01T18:42:59.363Z,298.13
2019-06-01T18:43:59.271Z,298.13
2019-06-01T18:44:59.321Z,264.38
2019-06-01T18:45:59.354Z,264.38
2019-06-01T18:46:59.313Z,264.38
2019-06-01T18:47:59.148Z,275.63
2019-06-01T18:48:59.130Z,292.50
2019-06-01T18:49:59.103Z,303.75
2019-06-01T18:50:59.079Z,286.88
2019-06-01T18:51:59.040Z,275.63
2019-06-01T18:52:59.087Z,264.38
2019-06-01T18:53:58.969Z,253.13
2019-06-01T18:54:58.945Z,275.63
2019-06-01T18:55:58.882Z,275.63
2019-06-01T18:57:09.366Z,275.63
2019-06-01T18:57:58.847Z,275.63
2019-06-01T18:58:58.786Z,270.00
2019-06-01T18:59:58.756Z,247.50
2019-06-01T19:00:58.778Z,241.88
2019-06-01T19:01:58.927Z,247.50
2019-06-01T19:02:58.692Z,241.88
2019-06-01T19:03:58.758Z,236.25
2019-06-01T19:04:58.670Z,230.63
2019-06-01T19:05:58.634Z,225.00
2019-06-01T19:06:58.569Z,225.00
2019-06-01T19:07:58.512Z,225.00
2019-06-01T19:08:58.503Z,225.00
2019-06-01T19:09:58.468Z,230.63
2019-06-01T19:10:58.416Z,225.00
2019-06-01T19:11:58.415Z,225.00
2019-06-01T19:12:58.386Z,225.00
2019-06-01T19:13:58.434Z,225.00
2019-06-01T19:14:58.353Z,230.63
2019-06-01T19:15:58.386Z,219.38
2019-06-01T19:16:58.245Z,213.75
2019-06-01T19:17:58.247Z,208.13
2019-06-01T19:18:58.194Z,196.88
2019-06-01T19:19:58.540Z,191.25
2019-06-01T19:20:58.348Z,185.63
2019-06-01T19:21:58.145Z,180.00
2019-06-01T19:22:58.081Z,185.63
2019-06-01T19:23:58.058Z,174.38
2019-06-01T19:25:58.059Z,174.38
2019-06-01T19:26:57.943Z,168.75
2019-06-01T19:27:57.933Z,168.75
2019-06-01T19:28:58.007Z,163.13
2019-06-01T19:29:57.920Z,168.75
2019-06-01T19:30:57.983Z,168.75
2019-06-01T19:31:57.878Z,163.13
2019-06-01T19:32:57.816Z,163.13
2019-06-01T19:33:57.734Z,157.50
2019-06-01T19:34:57.711Z,157.50
2019-06-01T19:35:57.776Z,151.88
2019-06-01T19:36:57.664Z,151.88
2019-06-01T19:37:57.697Z,151.88
2019-06-01T19:38:57.648Z,151.88
2019-06-01T19:39:57.628Z,151.88
2019-06-01T19:40:57.535Z,151.88
2019-06-01T19:41:57.496Z,146.25
2019-06-01T19:42:57.537Z,146.25
2019-06-01T19:43:57.495Z,146.25
2019-06-01T19:44:57.413Z,146.25
2019-06-01T19:45:57.470Z,146.25
2019-06-01T19:46:57.414Z,146.25
2019-06-01T19:47:57.511Z,151.88
2019-06-01T19:48:57.295Z,151.88
2019-06-01T19:49:57.264Z,151.88
2019-06-01T19:50:57.215Z,146.25
2019-06-01T19:51:57.219Z,146.25
2019-06-01T19:52:57.165Z,146.25
2019-06-01T19:53:57.145Z,140.63
2019-06-01T19:54:57.110Z,140.63
2019-06-01T19:55:57.133Z,135.00
2019-06-01T19:56:57.233Z,140.63
2019-06-01T19:57:57.113Z,135.00
2019-06-01T19:58:57.020Z,135.00
2019-06-01T19:59:56.947Z,135.00
2019-06-01T20:00:56.924Z,129.38
2019-06-01T20:01:56.900Z,129.38
2019-06-01T20:02:56.856Z,123.75
2019-06-01T20:03:56.816Z,118.13
2019-06-01T20:04:56.823Z,118.13
2019-06-01T20:05:56.782Z,112.50
2019-06-01T20:06:56.767Z,112.50
2019-06-01T20:07:56.729Z,112.50
2019-06-01T20:08:56.685Z,101.25
2019-06-01T20:09:56.632Z,95.63
2019-06-01T20:10:56.668Z,90.00
2019-06-01T20:12:01.965Z,90.00
2019-06-01T20:12:56.597Z,90.00
2019-06-01T20:13:56.548Z,78.75
2019-06-01T20:14:56.803Z,73.13
2019-06-01T20:15:56.528Z,73.13
2019-06-01T20:16:56.468Z,67.50
2019-06-01T20:17:56.412Z,61.88
2019-06-01T20:18:56.372Z,56.25
2019-06-01T20:19:56.415Z,50.63
2019-06-01T20:20:56.344Z,50.63
2019-06-01T20:21:56.366Z,45.00
2019-06-01T20:22:56.249Z,45.00
2019-06-01T20:23:56.223Z,39.38
2019-06-01T20:24:56.193Z,39.38
2019-06-01T20:25:56.296Z,39.38
2019-06-01T20:26:56.150Z,33.75
2019-06-01T20:27:56.072Z,33.75
2019-06-01T20:28:56.037Z,28.13
2019-06-01T20:29:56.037Z,28.13
2019-06-01T20:30:56.020Z,22.50
2019-06-01T20:31:56.399Z,22.50
2019-06-01T20:32:55.983Z,22.50
2019-06-01T20:33:56.520Z,16.88
2019-06-01T20:34:55.862Z,16.88
2019-06-01T20:35:55.881Z,16.88
2019-06-01T20:36:55.841Z,16.88
2019-06-01T20:37:55.820Z,11.25
2019-06-01T20:38:55.802Z,11.25
2019-06-01T20:39:55.821Z,11.25
2019-06-01T20:40:55.774Z,11.25
2019-06-01T20:41:55.675Z,5.63
2019-06-01T20:42:55.635Z,5.63
2019-06-01T20:43:55.607Z,5.63
2019-06-01T20:44:55.626Z,5.63
2019-06-01T20:45:56.909Z,5.63
2019-06-01T20:46:55.540Z,5.63
2019-06-01T20:47:55.576Z,5.63
2019-06-01T20:48:55.439Z,0.00
2019-06-01T20:49:55.444Z,0.00
2019-06-01T20:50:55.368Z,0.00
2019-06-01T20:51:55.371Z,0.00
2019-06-01T20:52:55.312Z,0.00
2019-06-01T20:53:55.271Z,0.00
2019-06-01T20:54:55.303Z,0.00
2019-06-01T20:55:55.234Z,0.00
2019-06-01T20:56:55.203Z,0.00
2019-06-01T20:57:55.147Z,0.00
2019-06-01T20:58:55.344Z,0.00
2019-06-01T20:59:55.090Z,0.00
2019-06-01T21:00:55.087Z,0.00
2019-06-01T21:01:55.034Z,0.00
2019-06-01T21:02:55.086Z,0.00
2019-06-01T21:03:54.960Z,0.00
2019-06-01T21:04:55.114Z,0.00
2019-06-01T21:05:54.974Z,0.00
2019-06-01T21:06:54.940Z,0.00
2019-06-01T21:07:57.194Z,0.00
2019-06-01T21:08:55.006Z,0.00
2019-06-01T21:09:54.970Z,0.00
2019-06-01T21:10:54.773Z,0.00
2019-06-01T21:11:54.704Z,0.00
2019-06-01T21:12:54.683Z,0.00
2019-06-01T21:13:54.686Z,0.00
2019-06-01T21:14:54.678Z,0.00
2019-06-01T21:15:54.870Z,0.00
2019-06-01T21:16:54.593Z,0.00
2019-06-01T21:17:54.569Z,0.00
2019-06-01T21:18:54.532Z,0.00
2019-06-01T21:19:54.521Z,0.00
2019-06-01T21:20:54.610Z,0.00
2019-06-01T21:21:54.400Z,0.00
2019-06-01T21:22:54.401Z,0.00
2019-06-01T21:23:54.352Z,0.00
2019-06-01T21:24:54.402Z,0.00
2019-06-01T21:25:54.339Z,0.00
2019-06-01T21:26:54.269Z,0.00
2019-06-01T21:27:54.207Z,0.00
2019-06-01T21:28:54.183Z,0.00
2019-06-01T21:29:54.389Z,0.00
2019-06-01T21:30:54.124Z,0.00
2019-06-01T21:31:54.121Z,0.00
2019-06-01T21:32:54.060Z,0.00
2019-06-01T21:33:54.038Z,0.00
2019-06-01T21:34:53.996Z,0.00
2019-06-01T21:35:54.189Z,0.00
2019-06-01T21:36:53.937Z,0.00
2019-06-01T21:37:54.028Z,0.00
2019-06-01T21:38:53.905Z,0.00
2019-06-01T21:39:53.885Z,0.00
2019-06-01T21:40:53.804Z,0.00
2019-06-01T21:41:53.787Z,0.00
2019-06-01T21:43:03.129Z,0.00
2019-06-01T21:43:53.751Z,0.00
2019-06-01T21:44:53.742Z,0.00
2019-06-01T21:45:53.690Z,0.00
2019-06-01T21:46:53.625Z,0.00
2019-06-01T21:47:53.601Z,0.00
2019-06-01T21:48:53.593Z,0.00
2019-06-01T21:49:53.539Z,0.00
2019-06-01T21:50:53.497Z,0.00
2019-06-01T21:51:53.516Z,0.00
2019-06-01T21:52:53.441Z,0.00
2019-06-01T21:53:53.459Z,0.00
2019-06-01T21:54:53.408Z,0.00
2019-06-01T21:55:53.346Z,0.00
2019-06-01T21:56:53.382Z,0.00
2019-06-01T21:57:53.341Z,0.00
2019-06-01T21:58:53.235Z,0.00
2019-06-01T21:59:53.245Z,0.00
2019-06-01T22:00:53.255Z,0.00
2019-06-01T22:01:53.393Z,0.00
2019-06-01T22:02:53.163Z,0.00
2019-06-01T22:03:53.081Z,0.00
2019-06-01T22:04:53.063Z,0.00
2019-06-01T22:05:53.048Z,0.00
2019-06-01T22:06:52.987Z,0.00
2019-06-01T22:07:52.957Z,0.00
2019-06-01T22:08:53.133Z,0.00
2019-06-01T22:09:52.923Z,0.00
2019-06-01T22:10:52.852Z,0.00
2019-06-01T22:11:52.873Z,0.00
2019-06-01T22:12:52.856Z,0.00
2019-06-01T22:13:52.780Z,0.00
2019-06-01T22:14:52.754Z,0.00
2019-06-01T22:15:52.715Z,0.00
2019-06-01T22:16:52.666Z,0.00
2019-06-01T22:17:52.655Z,0.00
2019-06-01T22:18:52.608Z,0.00
2019-06-01T22:19:52.579Z,0.00
2019-06-01T22:20:52.554Z,0.00
2019-06-01T22:21:52.516Z,0.00
2019-06-01T22:22:52.644Z,0.00
2019-06-01T22:23:52.462Z,0.00
2019-06-01T22:24:52.551Z,0.00
2019-06-01T22:25:52.378Z,0.00
2019-06-01T22:26:52.373Z,0.00
2019-06-01T22:27:52.352Z,0.00
2019-06-01T22:28:52.302Z,0.00
2019-06-01T22:29:52.293Z,0.00
2019-06-01T22:30:52.270Z,0.00
2019-06-01T22:31:52.213Z,0.00
2019-06-01T22:32:52.196Z,0.00
2019-06-01T22:33:52.146Z,0.00
2019-06-01T22:34:52.123Z,0.00
2019-06-01T22:35:52.071Z,0.00
2019-06-01T22:36:52.040Z,0.00
2019-06-01T22:37:52.074Z,0.00
2019-06-01T22:38:52.197Z,0.00
2019-06-01T22:39:51.956Z,0.00
2019-06-01T22:40:51.908Z,0.00
2019-06-01T22:41:51.918Z,0.00
2019-06-01T22:42:51.909Z,0.00
2019-06-01T22:43:52.128Z,0.00
2019-06-01T22:44:51.865Z,0.00
2019-06-01T22:45:51.797Z,0.00
2019-06-01T22:46:51.729Z,0.00
2019-06-01T22:47:51.717Z,0.00
2019-06-01T22:48:51.668Z,0.00
2019-06-01T22:49:51.627Z,0.00
2019-06-01T22:50:51.615Z,0.00
2019-06-01T22:51:51.576Z,0.00
2019-06-01T22:52:51.539Z,0.00
2019-06-01T22:53:51.518Z,0.00
2019-06-01T22:54:51.622Z,0.00
2019-06-01T22:55:51.433Z,0.00
2019-06-01T22:56:51.401Z,0.00
2019-06-01T22:57:51.390Z,0.00
2019-06-01T22:58:51.332Z,0.00
2019-06-01T22:59:51.298Z,0.00
2019-06-01T23:00:51.485Z,0.00
2019-06-01T23:01:51.238Z,0.00
2019-06-01T23:02:51.222Z,0.00
2019-06-01T23:03:51.188Z,0.00
2019-06-01T23:04:51.144Z,0.00
2019-06-01T23:05:51.106Z,0.00
2019-06-01T23:06:51.263Z,0.00
2019-06-01T23:07:51.048Z,0.00
2019-06-01T23:08:51.023Z,0.00
2019-06-01T23:09:50.992Z,0.00
2019-06-01T23:10:51.035Z,0.00
2019-06-01T23:11:50.998Z,0.00
2019-06-01T23:12:50.877Z,0.00
2019-06-01T23:13:53.746Z,0.00
2019-06-01T23:14:50.859Z,0.00
2019-06-01T23:15:50.822Z,0.00
2019-06-01T23:16:50.786Z,0.00
2019-06-01T23:17:50.827Z,0.00
2019-06-01T23:18:50.715Z,0.00
2019-06-01T23:19:50.655Z,0.00
2019-06-01T23:20:50.750Z,0.00
2019-06-01T23:21:50.612Z,0.00
2019-06-01T23:22:50.731Z,0.00
2019-06-01T23:23:50.549Z,0.00
2019-06-01T23:24:50.513Z,0.00
2019-06-01T23:25:50.464Z,0.00
2019-06-01T23:26:50.464Z,0.00
2019-06-01T23:27:50.415Z,0.00
2019-06-01T23:28:50.368Z,0.00
2019-06-01T23:29:50.356Z,0.00
2019-06-01T23:30:50.350Z,0.00
2019-06-01T23:31:50.279Z,0.00
2019-06-01T23:32:50.244Z,0.00
2019-06-01T23:33:50.324Z,0.00
2019-06-01T23:34:50.220Z,0.00
2019-06-01T23:35:50.264Z,0.00
2019-06-01T23:36:50.148Z,0.00
2019-06-01T23:37:50.144Z,0.00
2019-06-01T23:38:50.077Z,0.00
2019-06-01T23:39:50.067Z,0.00
2019-06-01T23:40:49.996Z,0.00
2019-06-01T23:41:50.009Z,0.00
2019-06-01T23:42:49.978Z,0.00
2019-06-01T23:43:49.905Z,0.00
2019-06-01T23:44:49.879Z,0.00
2019-06-01T23:45:49.819Z,0.00
2019-06-01T23:46:49.822Z,0.00
2019-06-01T23:47:49.781Z,0.00
2019-06-01T23:48:49.747Z,0.00
2019-06-01T23:49:49.734Z,0.00
2019-06-01T23:50:49.751Z,0.00
2019-06-01T23:51:49.634Z,0.00
2019-06-01T23:52:49.629Z,0.00
2019-06-01T23:53:49.592Z,0.00
2019-06-01T23:54:49.550Z,0.00
2019-06-01T23:55:49.778Z,0.00
2019-06-01T23:56:49.480Z,0.00
2019-06-01T23:57:49.442Z,0.00
2019-06-01T23:58:49.402Z,0.00
2019-06-01T23:59:49.402Z,0.00
